sensor_id;sensor_type;location;lat;lon;timestamp;P1;durP1;ratioP1;P2;durP2;ratioP2
84660;SDS011;74889;52.240;20.902;2024-01-10T00:01:58;114.60;;;46.20;;
84660;SDS011;74889;52.240;20.902;2024-01-10T00:04:24;121.20;;;45.80;;
84660;SDS011;74889;52.240;20.902;2024-01-10T00:06:49;124.10;;;46.90;;
84660;SDS011;74889;52.240;20.902;2024-01-10T00:09:15;120.30;;;46.00;;
84660;SDS011;74889;52.240;20.902;2024-01-10T00:11:40;133.10;;;47.40;;
84660;SDS011;74889;52.240;20.902;2024-01-10T00:14:06;125.40;;;47.80;;
84660;SDS011;74889;52.240;20.902;2024-01-10T00:16:32;116.80;;;45.90;;
84660;SDS011;74889;52.240;20.902;2024-01-10T00:18:57;107.20;;;43.50;;
84660;SDS011;74889;52.240;20.902;2024-01-10T00:21:23;122.70;;;44.30;;
84660;SDS011;74889;52.240;20.902;2024-01-10T00:23:48;111.10;;;44.30;;
84660;SDS011;74889;52.240;20.902;2024-01-10T00:26:14;111.30;;;42.80;;
84660;SDS011;74889;52.240;20.902;2024-01-10T00:28:40;108.00;;;42.20;;
84660;SDS011;74889;52.240;20.902;2024-01-10T00:31:06;109.80;;;43.30;;
84660;SDS011;74889;52.240;20.902;2024-01-10T00:33:31;102.50;;;40.00;;
84660;SDS011;74889;52.240;20.902;2024-01-10T00:35:57;109.70;;;42.70;;
84660;SDS011;74889;52.240;20.902;2024-01-10T00:38:22;121.20;;;45.90;;
84660;SDS011;74889;52.240;20.902;2024-01-10T00:40:48;104.70;;;42.60;;
84660;SDS011;74889;52.240;20.902;2024-01-10T00:43:13;119.10;;;44.80;;
84660;SDS011;74889;52.240;20.902;2024-01-10T00:45:39;101.60;;;42.00;;
84660;SDS011;74889;52.240;20.902;2024-01-10T00:48:04;107.40;;;42.90;;
84660;SDS011;74889;52.240;20.902;2024-01-10T00:50:30;117.70;;;42.50;;
84660;SDS011;74889;52.240;20.902;2024-01-10T00:52:56;114.80;;;43.70;;
84660;SDS011;74889;52.240;20.902;2024-01-10T00:55:21;118.70;;;45.80;;
84660;SDS011;74889;52.240;20.902;2024-01-10T00:57:47;111.60;;;44.50;;
84660;SDS011;74889;52.240;20.902;2024-01-10T01:00:12;111.40;;;43.40;;
84660;SDS011;74889;52.240;20.902;2024-01-10T01:02:38;122.00;;;44.00;;
84660;SDS011;74889;52.240;20.902;2024-01-10T01:05:06;116.90;;;46.60;;
84660;SDS011;74889;52.240;20.902;2024-01-10T01:07:32;116.30;;;44.40;;
84660;SDS011;74889;52.240;20.902;2024-01-10T01:09:59;122.10;;;47.30;;
84660;SDS011;74889;52.240;20.902;2024-01-10T01:12:25;108.80;;;45.10;;
84660;SDS011;74889;52.240;20.902;2024-01-10T01:14:50;129.60;;;47.20;;
84660;SDS011;74889;52.240;20.902;2024-01-10T01:17:16;113.80;;;44.10;;
84660;SDS011;74889;52.240;20.902;2024-01-10T01:19:41;118.00;;;45.80;;
84660;SDS011;74889;52.240;20.902;2024-01-10T01:22:07;123.90;;;47.40;;
84660;SDS011;74889;52.240;20.902;2024-01-10T01:24:32;124.90;;;47.30;;
84660;SDS011;74889;52.240;20.902;2024-01-10T01:26:58;130.10;;;49.60;;
84660;SDS011;74889;52.240;20.902;2024-01-10T01:29:23;134.30;;;49.30;;
84660;SDS011;74889;52.240;20.902;2024-01-10T01:31:50;124.60;;;47.90;;
84660;SDS011;74889;52.240;20.902;2024-01-10T01:34:15;123.40;;;48.50;;
84660;SDS011;74889;52.240;20.902;2024-01-10T01:36:41;117.90;;;48.80;;
84660;SDS011;74889;52.240;20.902;2024-01-10T01:39:06;124.30;;;48.10;;
84660;SDS011;74889;52.240;20.902;2024-01-10T01:41:32;121.20;;;48.40;;
84660;SDS011;74889;52.240;20.902;2024-01-10T01:43:58;125.30;;;49.60;;
84660;SDS011;74889;52.240;20.902;2024-01-10T01:46:23;131.40;;;50.30;;
84660;SDS011;74889;52.240;20.902;2024-01-10T01:48:49;118.20;;;48.50;;
84660;SDS011;74889;52.240;20.902;2024-01-10T01:51:15;119.20;;;46.60;;
84660;SDS011;74889;52.240;20.902;2024-01-10T01:53:42;116.90;;;47.80;;
84660;SDS011;74889;52.240;20.902;2024-01-10T01:56:09;129.20;;;47.80;;
84660;SDS011;74889;52.240;20.902;2024-01-10T01:58:37;123.40;;;47.30;;
84660;SDS011;74889;52.240;20.902;2024-01-10T02:01:05;109.10;;;45.30;;
84660;SDS011;74889;52.240;20.902;2024-01-10T02:03:31;121.40;;;44.80;;
84660;SDS011;74889;52.240;20.902;2024-01-10T02:06:00;118.90;;;45.50;;
84660;SDS011;74889;52.240;20.902;2024-01-10T02:08:29;121.40;;;46.60;;
84660;SDS011;74889;52.240;20.902;2024-01-10T02:10:57;122.90;;;49.10;;
84660;SDS011;74889;52.240;20.902;2024-01-10T02:13:23;122.80;;;46.70;;
84660;SDS011;74889;52.240;20.902;2024-01-10T02:15:49;112.90;;;45.10;;
84660;SDS011;74889;52.240;20.902;2024-01-10T02:18:16;113.50;;;43.90;;
84660;SDS011;74889;52.240;20.902;2024-01-10T02:20:43;120.40;;;48.10;;
84660;SDS011;74889;52.240;20.902;2024-01-10T02:23:09;122.30;;;45.00;;
84660;SDS011;74889;52.240;20.902;2024-01-10T02:25:36;113.20;;;43.40;;
84660;SDS011;74889;52.240;20.902;2024-01-10T02:28:02;120.30;;;44.90;;
84660;SDS011;74889;52.240;20.902;2024-01-10T02:30:27;110.20;;;42.90;;
84660;SDS011;74889;52.240;20.902;2024-01-10T02:32:53;116.70;;;45.10;;
84660;SDS011;74889;52.240;20.902;2024-01-10T02:35:18;121.00;;;44.70;;
84660;SDS011;74889;52.240;20.902;2024-01-10T02:37:44;121.20;;;44.10;;
84660;SDS011;74889;52.240;20.902;2024-01-10T02:40:10;119.20;;;43.10;;
84660;SDS011;74889;52.240;20.902;2024-01-10T02:42:36;115.40;;;44.70;;
84660;SDS011;74889;52.240;20.902;2024-01-10T02:45:01;114.20;;;44.40;;
84660;SDS011;74889;52.240;20.902;2024-01-10T02:47:27;108.40;;;42.20;;
84660;SDS011;74889;52.240;20.902;2024-01-10T02:49:54;106.50;;;43.20;;
84660;SDS011;74889;52.240;20.902;2024-01-10T02:52:20;117.70;;;44.30;;
84660;SDS011;74889;52.240;20.902;2024-01-10T02:54:46;114.60;;;44.60;;
84660;SDS011;74889;52.240;20.902;2024-01-10T02:57:12;107.30;;;43.20;;
84660;SDS011;74889;52.240;20.902;2024-01-10T02:59:38;113.80;;;45.60;;
84660;SDS011;74889;52.240;20.902;2024-01-10T03:02:04;116.50;;;44.40;;
84660;SDS011;74889;52.240;20.902;2024-01-10T03:04:29;115.80;;;45.30;;
84660;SDS011;74889;52.240;20.902;2024-01-10T03:06:55;114.70;;;44.20;;
84660;SDS011;74889;52.240;20.902;2024-01-10T03:09:20;118.80;;;45.20;;
84660;SDS011;74889;52.240;20.902;2024-01-10T03:11:46;120.90;;;44.10;;
84660;SDS011;74889;52.240;20.902;2024-01-10T03:14:11;117.60;;;46.00;;
84660;SDS011;74889;52.240;20.902;2024-01-10T03:16:36;108.80;;;44.20;;
84660;SDS011;74889;52.240;20.902;2024-01-10T03:19:02;101.70;;;42.60;;
84660;SDS011;74889;52.240;20.902;2024-01-10T03:21:28;105.40;;;43.10;;
84660;SDS011;74889;52.240;20.902;2024-01-10T03:23:58;105.90;;;43.60;;
84660;SDS011;74889;52.240;20.902;2024-01-10T03:26:25;122.20;;;45.50;;
84660;SDS011;74889;52.240;20.902;2024-01-10T03:28:52;110.70;;;43.40;;
84660;SDS011;74889;52.240;20.902;2024-01-10T03:31:18;122.50;;;47.90;;
84660;SDS011;74889;52.240;20.902;2024-01-10T03:33:45;109.60;;;45.60;;
84660;SDS011;74889;52.240;20.902;2024-01-10T03:36:12;119.20;;;45.70;;
84660;SDS011;74889;52.240;20.902;2024-01-10T03:38:40;119.30;;;46.10;;
84660;SDS011;74889;52.240;20.902;2024-01-10T03:41:06;112.20;;;43.20;;
84660;SDS011;74889;52.240;20.902;2024-01-10T03:43:31;116.80;;;44.50;;
84660;SDS011;74889;52.240;20.902;2024-01-10T03:45:57;105.30;;;42.80;;
84660;SDS011;74889;52.240;20.902;2024-01-10T03:48:23;112.40;;;43.30;;
84660;SDS011;74889;52.240;20.902;2024-01-10T03:50:50;114.50;;;44.80;;
84660;SDS011;74889;52.240;20.902;2024-01-10T03:53:15;114.80;;;44.70;;
84660;SDS011;74889;52.240;20.902;2024-01-10T03:55:41;123.30;;;47.20;;
84660;SDS011;74889;52.240;20.902;2024-01-10T03:58:06;110.90;;;44.80;;
84660;SDS011;74889;52.240;20.902;2024-01-10T04:00:32;118.20;;;45.30;;
84660;SDS011;74889;52.240;20.902;2024-01-10T04:02:57;122.20;;;44.80;;
84660;SDS011;74889;52.240;20.902;2024-01-10T04:05:23;120.90;;;43.90;;
84660;SDS011;74889;52.240;20.902;2024-01-10T04:07:50;123.50;;;46.60;;
84660;SDS011;74889;52.240;20.902;2024-01-10T04:10:17;109.00;;;44.40;;
84660;SDS011;74889;52.240;20.902;2024-01-10T04:12:43;106.10;;;42.80;;
84660;SDS011;74889;52.240;20.902;2024-01-10T04:15:10;117.40;;;44.20;;
84660;SDS011;74889;52.240;20.902;2024-01-10T04:17:36;111.90;;;44.50;;
84660;SDS011;74889;52.240;20.902;2024-01-10T04:20:02;105.30;;;41.40;;
84660;SDS011;74889;52.240;20.902;2024-01-10T04:22:28;116.00;;;44.30;;
84660;SDS011;74889;52.240;20.902;2024-01-10T04:24:57;106.00;;;42.90;;
84660;SDS011;74889;52.240;20.902;2024-01-10T04:27:23;108.70;;;41.80;;
84660;SDS011;74889;52.240;20.902;2024-01-10T04:29:48;114.20;;;46.60;;
84660;SDS011;74889;52.240;20.902;2024-01-10T04:32:14;115.60;;;44.50;;
84660;SDS011;74889;52.240;20.902;2024-01-10T04:34:39;107.80;;;42.40;;
84660;SDS011;74889;52.240;20.902;2024-01-10T04:37:05;107.80;;;42.10;;
84660;SDS011;74889;52.240;20.902;2024-01-10T04:39:33;112.20;;;42.50;;
84660;SDS011;74889;52.240;20.902;2024-01-10T04:41:59;108.40;;;43.70;;
84660;SDS011;74889;52.240;20.902;2024-01-10T04:44:24;111.90;;;42.90;;
84660;SDS011;74889;52.240;20.902;2024-01-10T04:46:50;115.20;;;42.70;;
84660;SDS011;74889;52.240;20.902;2024-01-10T04:49:16;119.50;;;46.20;;
84660;SDS011;74889;52.240;20.902;2024-01-10T04:51:41;115.70;;;44.90;;
84660;SDS011;74889;52.240;20.902;2024-01-10T04:54:07;102.20;;;42.40;;
84660;SDS011;74889;52.240;20.902;2024-01-10T04:56:34;107.80;;;43.90;;
84660;SDS011;74889;52.240;20.902;2024-01-10T04:59:01;118.10;;;44.10;;
84660;SDS011;74889;52.240;20.902;2024-01-10T05:01:27;101.40;;;42.70;;
84660;SDS011;74889;52.240;20.902;2024-01-10T05:03:53;112.30;;;44.20;;
84660;SDS011;74889;52.240;20.902;2024-01-10T05:06:18;123.40;;;46.30;;
84660;SDS011;74889;52.240;20.902;2024-01-10T05:08:44;111.10;;;45.10;;
84660;SDS011;74889;52.240;20.902;2024-01-10T05:11:09;120.80;;;46.00;;
84660;SDS011;74889;52.240;20.902;2024-01-10T05:13:36;108.60;;;43.70;;
84660;SDS011;74889;52.240;20.902;2024-01-10T05:16:01;113.50;;;43.10;;
84660;SDS011;74889;52.240;20.902;2024-01-10T05:18:27;113.30;;;44.70;;
84660;SDS011;74889;52.240;20.902;2024-01-10T05:20:53;117.80;;;43.50;;
84660;SDS011;74889;52.240;20.902;2024-01-10T05:23:18;109.60;;;44.00;;
84660;SDS011;74889;52.240;20.902;2024-01-10T05:25:44;104.30;;;42.50;;
84660;SDS011;74889;52.240;20.902;2024-01-10T05:28:09;105.30;;;41.30;;
84660;SDS011;74889;52.240;20.902;2024-01-10T05:30:35;111.90;;;43.70;;
84660;SDS011;74889;52.240;20.902;2024-01-10T05:33:00;107.40;;;43.00;;
84660;SDS011;74889;52.240;20.902;2024-01-10T05:35:26;111.50;;;41.10;;
84660;SDS011;74889;52.240;20.902;2024-01-10T05:37:51;114.10;;;43.30;;
84660;SDS011;74889;52.240;20.902;2024-01-10T05:40:18;116.20;;;44.00;;
84660;SDS011;74889;52.240;20.902;2024-01-10T05:42:44;107.10;;;40.90;;
84660;SDS011;74889;52.240;20.902;2024-01-10T05:45:10;102.90;;;41.60;;
84660;SDS011;74889;52.240;20.902;2024-01-10T05:47:35;114.80;;;43.30;;
84660;SDS011;74889;52.240;20.902;2024-01-10T05:50:03;112.00;;;41.70;;
84660;SDS011;74889;52.240;20.902;2024-01-10T05:52:32;102.10;;;40.20;;
84660;SDS011;74889;52.240;20.902;2024-01-10T05:54:58;110.30;;;43.50;;
84660;SDS011;74889;52.240;20.902;2024-01-10T05:57:26;118.00;;;43.80;;
84660;SDS011;74889;52.240;20.902;2024-01-10T05:59:52;111.30;;;41.80;;
84660;SDS011;74889;52.240;20.902;2024-01-10T06:02:21;109.70;;;43.60;;
84660;SDS011;74889;52.240;20.902;2024-01-10T06:04:46;108.80;;;45.20;;
84660;SDS011;74889;52.240;20.902;2024-01-10T06:07:12;111.20;;;44.20;;
84660;SDS011;74889;52.240;20.902;2024-01-10T06:09:37;116.70;;;45.20;;
84660;SDS011;74889;52.240;20.902;2024-01-10T06:12:03;112.00;;;43.90;;
84660;SDS011;74889;52.240;20.902;2024-01-10T06:14:29;115.90;;;46.30;;
84660;SDS011;74889;52.240;20.902;2024-01-10T06:16:54;120.90;;;47.20;;
84660;SDS011;74889;52.240;20.902;2024-01-10T06:19:20;111.40;;;44.60;;
84660;SDS011;74889;52.240;20.902;2024-01-10T06:21:46;113.50;;;45.80;;
84660;SDS011;74889;52.240;20.902;2024-01-10T06:24:12;120.00;;;46.60;;
84660;SDS011;74889;52.240;20.902;2024-01-10T06:26:37;110.30;;;46.30;;
84660;SDS011;74889;52.240;20.902;2024-01-10T06:29:03;120.10;;;46.00;;
84660;SDS011;74889;52.240;20.902;2024-01-10T06:31:28;119.50;;;44.80;;
84660;SDS011;74889;52.240;20.902;2024-01-10T06:33:54;119.80;;;46.10;;
84660;SDS011;74889;52.240;20.902;2024-01-10T06:36:20;120.80;;;45.30;;
84660;SDS011;74889;52.240;20.902;2024-01-10T06:38:46;113.70;;;46.00;;
84660;SDS011;74889;52.240;20.902;2024-01-10T06:41:12;114.60;;;45.90;;
84660;SDS011;74889;52.240;20.902;2024-01-10T06:43:39;128.10;;;47.40;;
84660;SDS011;74889;52.240;20.902;2024-01-10T06:46:05;118.00;;;45.10;;
84660;SDS011;74889;52.240;20.902;2024-01-10T06:48:32;126.80;;;47.20;;
84660;SDS011;74889;52.240;20.902;2024-01-10T06:50:57;121.30;;;46.70;;
84660;SDS011;74889;52.240;20.902;2024-01-10T06:53:24;118.60;;;44.60;;
84660;SDS011;74889;52.240;20.902;2024-01-10T06:55:50;121.30;;;46.60;;
84660;SDS011;74889;52.240;20.902;2024-01-10T06:58:16;122.60;;;47.20;;
84660;SDS011;74889;52.240;20.902;2024-01-10T07:00:41;123.60;;;46.70;;
84660;SDS011;74889;52.240;20.902;2024-01-10T07:03:07;124.80;;;50.10;;
84660;SDS011;74889;52.240;20.902;2024-01-10T07:05:32;125.30;;;47.00;;
84660;SDS011;74889;52.240;20.902;2024-01-10T07:07:59;131.50;;;48.90;;
84660;SDS011;74889;52.240;20.902;2024-01-10T07:10:28;114.90;;;47.40;;
84660;SDS011;74889;52.240;20.902;2024-01-10T07:12:54;124.30;;;47.70;;
84660;SDS011;74889;52.240;20.902;2024-01-10T07:15:20;124.30;;;47.50;;
84660;SDS011;74889;52.240;20.902;2024-01-10T07:17:46;128.30;;;48.10;;
84660;SDS011;74889;52.240;20.902;2024-01-10T07:20:12;118.30;;;47.60;;
84660;SDS011;74889;52.240;20.902;2024-01-10T07:22:38;132.70;;;50.70;;
84660;SDS011;74889;52.240;20.902;2024-01-10T07:25:10;122.30;;;50.90;;
84660;SDS011;74889;52.240;20.902;2024-01-10T07:27:45;121.50;;;48.70;;
84660;SDS011;74889;52.240;20.902;2024-01-10T07:30:11;122.90;;;47.10;;
84660;SDS011;74889;52.240;20.902;2024-01-10T07:32:43;113.50;;;46.80;;
84660;SDS011;74889;52.240;20.902;2024-01-10T07:35:10;126.30;;;49.60;;
84660;SDS011;74889;52.240;20.902;2024-01-10T07:37:39;132.50;;;50.10;;
84660;SDS011;74889;52.240;20.902;2024-01-10T07:40:06;127.30;;;51.80;;
84660;SDS011;74889;52.240;20.902;2024-01-10T07:42:34;131.50;;;51.70;;
84660;SDS011;74889;52.240;20.902;2024-01-10T07:45:00;147.30;;;54.60;;
84660;SDS011;74889;52.240;20.902;2024-01-10T07:47:30;125.30;;;51.80;;
84660;SDS011;74889;52.240;20.902;2024-01-10T07:49:57;136.40;;;52.50;;
84660;SDS011;74889;52.240;20.902;2024-01-10T07:52:23;132.10;;;52.10;;
84660;SDS011;74889;52.240;20.902;2024-01-10T07:54:48;127.40;;;52.60;;
84660;SDS011;74889;52.240;20.902;2024-01-10T07:57:14;127.60;;;51.00;;
84660;SDS011;74889;52.240;20.902;2024-01-10T07:59:39;126.40;;;50.90;;
84660;SDS011;74889;52.240;20.902;2024-01-10T08:02:05;127.30;;;52.30;;
84660;SDS011;74889;52.240;20.902;2024-01-10T08:04:32;141.10;;;53.60;;
84660;SDS011;74889;52.240;20.902;2024-01-10T08:06:57;137.20;;;53.50;;
84660;SDS011;74889;52.240;20.902;2024-01-10T08:09:23;131.30;;;53.20;;
84660;SDS011;74889;52.240;20.902;2024-01-10T08:11:51;133.30;;;52.90;;
84660;SDS011;74889;52.240;20.902;2024-01-10T08:14:17;130.20;;;50.90;;
84660;SDS011;74889;52.240;20.902;2024-01-10T08:16:42;140.30;;;52.50;;
84660;SDS011;74889;52.240;20.902;2024-01-10T08:19:08;141.90;;;53.50;;
84660;SDS011;74889;52.240;20.902;2024-01-10T08:21:33;133.90;;;52.80;;
84660;SDS011;74889;52.240;20.902;2024-01-10T08:24:01;124.20;;;52.50;;
84660;SDS011;74889;52.240;20.902;2024-01-10T08:26:28;138.10;;;52.00;;
84660;SDS011;74889;52.240;20.902;2024-01-10T08:28:54;148.30;;;55.60;;
84660;SDS011;74889;52.240;20.902;2024-01-10T08:31:20;133.10;;;52.90;;
84660;SDS011;74889;52.240;20.902;2024-01-10T08:33:45;143.10;;;55.80;;
84660;SDS011;74889;52.240;20.902;2024-01-10T08:36:12;141.60;;;56.10;;
84660;SDS011;74889;52.240;20.902;2024-01-10T08:38:39;136.80;;;54.40;;
84660;SDS011;74889;52.240;20.902;2024-01-10T08:41:09;140.40;;;54.30;;
84660;SDS011;74889;52.240;20.902;2024-01-10T08:43:37;141.50;;;55.30;;
84660;SDS011;74889;52.240;20.902;2024-01-10T08:46:03;143.30;;;53.80;;
84660;SDS011;74889;52.240;20.902;2024-01-10T08:48:29;132.70;;;52.90;;
84660;SDS011;74889;52.240;20.902;2024-01-10T08:50:54;130.40;;;52.80;;
84660;SDS011;74889;52.240;20.902;2024-01-10T08:53:21;139.20;;;54.70;;
84660;SDS011;74889;52.240;20.902;2024-01-10T08:55:47;143.60;;;54.70;;
84660;SDS011;74889;52.240;20.902;2024-01-10T08:58:13;139.30;;;54.00;;
84660;SDS011;74889;52.240;20.902;2024-01-10T09:00:39;139.90;;;54.60;;
84660;SDS011;74889;52.240;20.902;2024-01-10T09:03:04;134.70;;;53.60;;
84660;SDS011;74889;52.240;20.902;2024-01-10T09:05:30;126.90;;;52.30;;
84660;SDS011;74889;52.240;20.902;2024-01-10T09:07:56;130.90;;;52.80;;
84660;SDS011;74889;52.240;20.902;2024-01-10T09:10:22;127.40;;;53.20;;
84660;SDS011;74889;52.240;20.902;2024-01-10T09:12:47;134.90;;;52.20;;
84660;SDS011;74889;52.240;20.902;2024-01-10T09:15:14;125.10;;;53.10;;
84660;SDS011;74889;52.240;20.902;2024-01-10T09:17:43;141.30;;;56.40;;
84660;SDS011;74889;52.240;20.902;2024-01-10T09:20:09;125.40;;;51.40;;
84660;SDS011;74889;52.240;20.902;2024-01-10T09:22:38;142.00;;;54.10;;
84660;SDS011;74889;52.240;20.902;2024-01-10T09:25:05;131.30;;;52.90;;
84660;SDS011;74889;52.240;20.902;2024-01-10T09:27:31;138.80;;;56.00;;
84660;SDS011;74889;52.240;20.902;2024-01-10T09:29:57;130.00;;;55.50;;
84660;SDS011;74889;52.240;20.902;2024-01-10T09:32:23;135.00;;;54.80;;
84660;SDS011;74889;52.240;20.902;2024-01-10T09:34:48;133.40;;;53.20;;
84660;SDS011;74889;52.240;20.902;2024-01-10T09:37:14;130.80;;;56.70;;
84660;SDS011;74889;52.240;20.902;2024-01-10T09:39:40;140.50;;;54.00;;
84660;SDS011;74889;52.240;20.902;2024-01-10T09:42:06;134.10;;;54.40;;
84660;SDS011;74889;52.240;20.902;2024-01-10T09:44:32;143.30;;;55.10;;
84660;SDS011;74889;52.240;20.902;2024-01-10T09:46:58;144.90;;;56.80;;
84660;SDS011;74889;52.240;20.902;2024-01-10T09:49:26;129.80;;;54.30;;
84660;SDS011;74889;52.240;20.902;2024-01-10T09:51:58;122.20;;;54.80;;
84660;SDS011;74889;52.240;20.902;2024-01-10T09:54:29;132.90;;;55.80;;
84660;SDS011;74889;52.240;20.902;2024-01-10T09:56:56;139.00;;;55.80;;
84660;SDS011;74889;52.240;20.902;2024-01-10T09:59:23;137.40;;;55.40;;
84660;SDS011;74889;52.240;20.902;2024-01-10T10:01:50;142.70;;;56.40;;
84660;SDS011;74889;52.240;20.902;2024-01-10T10:04:21;140.30;;;58.80;;
84660;SDS011;74889;52.240;20.902;2024-01-10T10:06:57;132.00;;;58.00;;
84660;SDS011;74889;52.240;20.902;2024-01-10T10:09:23;137.00;;;54.70;;
84660;SDS011;74889;52.240;20.902;2024-01-10T10:11:54;144.50;;;57.30;;
84660;SDS011;74889;52.240;20.902;2024-01-10T10:14:20;144.30;;;57.50;;
84660;SDS011;74889;52.240;20.902;2024-01-10T10:16:45;140.40;;;54.80;;
84660;SDS011;74889;52.240;20.902;2024-01-10T10:19:11;134.20;;;57.10;;
84660;SDS011;74889;52.240;20.902;2024-01-10T10:21:38;133.70;;;54.90;;
84660;SDS011;74889;52.240;20.902;2024-01-10T10:24:04;145.30;;;58.00;;
84660;SDS011;74889;52.240;20.902;2024-01-10T10:26:31;134.00;;;56.90;;
84660;SDS011;74889;52.240;20.902;2024-01-10T10:28:58;132.00;;;57.30;;
84660;SDS011;74889;52.240;20.902;2024-01-10T10:31:24;141.00;;;56.30;;
84660;SDS011;74889;52.240;20.902;2024-01-10T10:33:50;130.50;;;56.80;;
84660;SDS011;74889;52.240;20.902;2024-01-10T10:36:17;135.30;;;55.30;;
84660;SDS011;74889;52.240;20.902;2024-01-10T10:38:46;132.30;;;54.40;;
84660;SDS011;74889;52.240;20.902;2024-01-10T10:41:13;117.50;;;53.30;;
84660;SDS011;74889;52.240;20.902;2024-01-10T10:43:39;127.50;;;54.30;;
84660;SDS011;74889;52.240;20.902;2024-01-10T10:46:06;139.40;;;55.50;;
84660;SDS011;74889;52.240;20.902;2024-01-10T10:48:34;133.90;;;53.60;;
84660;SDS011;74889;52.240;20.902;2024-01-10T10:51:04;141.60;;;55.40;;
84660;SDS011;74889;52.240;20.902;2024-01-10T10:53:35;128.20;;;52.90;;
84660;SDS011;74889;52.240;20.902;2024-01-10T10:56:02;118.70;;;51.40;;
84660;SDS011;74889;52.240;20.902;2024-01-10T10:58:36;122.40;;;51.90;;
84660;SDS011;74889;52.240;20.902;2024-01-10T11:01:04;122.00;;;52.00;;
84660;SDS011;74889;52.240;20.902;2024-01-10T11:03:33;125.50;;;52.90;;
84660;SDS011;74889;52.240;20.902;2024-01-10T11:06:01;126.30;;;52.60;;
84660;SDS011;74889;52.240;20.902;2024-01-10T11:08:29;114.70;;;51.50;;
84660;SDS011;74889;52.240;20.902;2024-01-10T11:10:59;117.40;;;49.80;;
84660;SDS011;74889;52.240;20.902;2024-01-10T11:13:27;120.70;;;49.40;;
84660;SDS011;74889;52.240;20.902;2024-01-10T11:24:45;122.60;;;50.60;;
84660;SDS011;74889;52.240;20.902;2024-01-10T11:29:39;134.10;;;51.30;;
84660;SDS011;74889;52.240;20.902;2024-01-10T11:32:06;121.80;;;51.40;;
84660;SDS011;74889;52.240;20.902;2024-01-10T11:34:35;116.70;;;50.10;;
84660;SDS011;74889;52.240;20.902;2024-01-10T11:37:10;111.50;;;51.10;;
84660;SDS011;74889;52.240;20.902;2024-01-10T11:39:40;114.40;;;51.50;;
84660;SDS011;74889;52.240;20.902;2024-01-10T11:42:07;116.60;;;48.30;;
84660;SDS011;74889;52.240;20.902;2024-01-10T11:44:34;103.70;;;47.30;;
84660;SDS011;74889;52.240;20.902;2024-01-10T11:47:11;105.20;;;45.30;;
84660;SDS011;74889;52.240;20.902;2024-01-10T11:49:40;99.80;;;46.30;;
84660;SDS011;74889;52.240;20.902;2024-01-10T11:52:06;104.10;;;45.40;;
84660;SDS011;74889;52.240;20.902;2024-01-10T11:54:37;103.00;;;45.90;;
84660;SDS011;74889;52.240;20.902;2024-01-10T11:57:23;101.40;;;46.70;;
84660;SDS011;74889;52.240;20.902;2024-01-10T11:59:55;104.10;;;44.40;;
84660;SDS011;74889;52.240;20.902;2024-01-10T12:02:22;100.80;;;44.80;;
84660;SDS011;74889;52.240;20.902;2024-01-10T12:04:53;105.00;;;44.40;;
84660;SDS011;74889;52.240;20.902;2024-01-10T12:07:20;104.20;;;44.60;;
84660;SDS011;74889;52.240;20.902;2024-01-10T12:09:46;116.20;;;48.40;;
84660;SDS011;74889;52.240;20.902;2024-01-10T12:12:13;116.30;;;47.20;;
84660;SDS011;74889;52.240;20.902;2024-01-10T12:14:39;110.30;;;47.10;;
84660;SDS011;74889;52.240;20.902;2024-01-10T12:17:06;121.40;;;49.90;;
84660;SDS011;74889;52.240;20.902;2024-01-10T12:19:35;127.20;;;52.90;;
84660;SDS011;74889;52.240;20.902;2024-01-10T12:22:02;116.00;;;50.50;;
84660;SDS011;74889;52.240;20.902;2024-01-10T12:24:30;117.40;;;51.50;;
84660;SDS011;74889;52.240;20.902;2024-01-10T12:26:56;117.30;;;50.20;;
84660;SDS011;74889;52.240;20.902;2024-01-10T12:29:22;110.30;;;50.50;;
84660;SDS011;74889;52.240;20.902;2024-01-10T12:31:48;122.40;;;51.40;;
84660;SDS011;74889;52.240;20.902;2024-01-10T12:34:13;116.10;;;51.10;;
84660;SDS011;74889;52.240;20.902;2024-01-10T12:36:43;116.50;;;49.90;;
84660;SDS011;74889;52.240;20.902;2024-01-10T12:39:09;118.00;;;50.40;;
84660;SDS011;74889;52.240;20.902;2024-01-10T12:41:37;119.40;;;50.90;;
84660;SDS011;74889;52.240;20.902;2024-01-10T12:44:05;120.60;;;52.40;;
84660;SDS011;74889;52.240;20.902;2024-01-10T12:46:32;115.20;;;50.00;;
84660;SDS011;74889;52.240;20.902;2024-01-10T12:49:07;117.40;;;52.80;;
84660;SDS011;74889;52.240;20.902;2024-01-10T12:51:33;116.70;;;49.00;;
84660;SDS011;74889;52.240;20.902;2024-01-10T12:54:01;117.60;;;49.70;;
84660;SDS011;74889;52.240;20.902;2024-01-10T12:56:29;113.60;;;51.30;;
84660;SDS011;74889;52.240;20.902;2024-01-10T12:58:55;118.60;;;50.80;;
84660;SDS011;74889;52.240;20.902;2024-01-10T13:01:22;106.20;;;47.20;;
84660;SDS011;74889;52.240;20.902;2024-01-10T13:03:49;115.80;;;49.30;;
84660;SDS011;74889;52.240;20.902;2024-01-10T13:06:15;116.10;;;50.70;;
84660;SDS011;74889;52.240;20.902;2024-01-10T13:08:41;111.50;;;46.20;;
84660;SDS011;74889;52.240;20.902;2024-01-10T13:11:07;117.90;;;47.50;;
84660;SDS011;74889;52.240;20.902;2024-01-10T13:13:35;114.80;;;47.90;;
84660;SDS011;74889;52.240;20.902;2024-01-10T13:16:01;106.00;;;44.30;;
84660;SDS011;74889;52.240;20.902;2024-01-10T13:18:27;111.30;;;44.80;;
84660;SDS011;74889;52.240;20.902;2024-01-10T13:20:54;107.60;;;46.50;;
84660;SDS011;74889;52.240;20.902;2024-01-10T13:23:20;114.70;;;50.90;;
84660;SDS011;74889;52.240;20.902;2024-01-10T13:25:48;116.20;;;52.20;;
84660;SDS011;74889;52.240;20.902;2024-01-10T13:28:14;122.60;;;52.40;;
84660;SDS011;74889;52.240;20.902;2024-01-10T13:30:40;111.20;;;47.30;;
84660;SDS011;74889;52.240;20.902;2024-01-10T13:33:08;109.40;;;48.70;;
84660;SDS011;74889;52.240;20.902;2024-01-10T13:35:35;113.60;;;52.70;;
84660;SDS011;74889;52.240;20.902;2024-01-10T13:38:04;117.50;;;50.10;;
84660;SDS011;74889;52.240;20.902;2024-01-10T13:40:32;115.20;;;49.30;;
84660;SDS011;74889;52.240;20.902;2024-01-10T13:42:59;107.30;;;44.80;;
84660;SDS011;74889;52.240;20.902;2024-01-10T13:45:27;112.80;;;46.90;;
84660;SDS011;74889;52.240;20.902;2024-01-10T13:47:53;109.00;;;45.30;;
84660;SDS011;74889;52.240;20.902;2024-01-10T13:50:19;111.00;;;46.60;;
84660;SDS011;74889;52.240;20.902;2024-01-10T13:52:45;112.70;;;46.20;;
84660;SDS011;74889;52.240;20.902;2024-01-10T13:55:10;110.40;;;48.20;;
84660;SDS011;74889;52.240;20.902;2024-01-10T13:57:36;112.40;;;47.20;;
84660;SDS011;74889;52.240;20.902;2024-01-10T14:00:02;119.30;;;51.50;;
84660;SDS011;74889;52.240;20.902;2024-01-10T14:02:37;124.90;;;51.60;;
84660;SDS011;74889;52.240;20.902;2024-01-10T14:05:02;122.70;;;50.40;;